Ocean Yatzy — V7FG4 — position and weather

sailwx.info

Track history (hours):
 
Tides and Currents Weather Stations Pressure Air Temp Water Temp Dewpoint Dewpoint Depression Visibility Wind Speed Wind Dir Waves Ship Positions

Ocean Yatzy

Last reported at 2018-Jan-24 06:42 UTC. Time now 2018-Feb-18 05:31 UTC.
Position N 36°06' W 005°25'.
Warning: this ship's position is 24 days out of date.

Length 80 m; draft 21.5 m.

Type: Ship. MMSI: 538001932.

Date/timePositionNaut miles runAvg speedWind from/ knotsBaromVisibWave heightAir tempDewpointWater temp
2018-Jan-24 06:42N 36°06' W 005°25'0 0.1
2018-Jan-24 06:27N 36°06' W 005°25'0 0.0
2018-Jan-24 06:00N 36°06' W 005°25'0 0.0
2018-Jan-24 05:30N 36°06' W 005°25'0 0.1
2018-Jan-24 03:27N 36°06' W 005°24'0 0.1
2018-Jan-24 01:57N 36°06' W 005°24'0 0.0
2018-Jan-24 01:30N 36°06' W 005°24'2 0.0
2018-Jan-22 06:38N 36°05' W 005°23'0 1.9
2018-Jan-22 06:30N 36°05' W 005°23'3 6.3
2018-Jan-22 06:00N 36°02' W 005°21'3 5.3
2018-Jan-22 05:31N 35°60' W 005°20'4 7.1
2018-Jan-22 05:00N 35°59' W 005°25'4 8.8
2018-Jan-22 04:30N 35°57' W 005°30'26911.5
2018-Jan-21 05:06N 32°58' W 009°33'1212.2
2018-Jan-21 04:09N 32°49' W 009°42'  
Track history (hours):
 
Tides and Currents Weather Stations Pressure Air Temp Water Temp Dewpoint Dewpoint Depression Visibility Wind Speed Wind Dir Waves Ship Positions

Ocean Yatzy

Last reported at 2018-Jan-24 06:42 UTC. Time now 2018-Feb-18 05:31 UTC.
Position N 36°06' W 005°25'.
Warning: this ship's position is 24 days out of date.

Length 80 m; draft 21.5 m.

Type: Ship. MMSI: 538001932.

Date/timePositionNaut miles runAvg speedWind from/ knotsBaromVisibWave heightAir tempDewpointWater temp
2018-Jan-24 06:42N 36°06' W 005°25'0 0.1
2018-Jan-24 06:27N 36°06' W 005°25'0 0.0
2018-Jan-24 06:00N 36°06' W 005°25'0 0.0
2018-Jan-24 05:30N 36°06' W 005°25'0 0.1
2018-Jan-24 03:27N 36°06' W 005°24'0 0.1
2018-Jan-24 01:57N 36°06' W 005°24'0 0.0
2018-Jan-24 01:30N 36°06' W 005°24'2 0.0
2018-Jan-22 06:38N 36°05' W 005°23'0 1.9
2018-Jan-22 06:30N 36°05' W 005°23'3 6.3
2018-Jan-22 06:00N 36°02' W 005°21'3 5.3
2018-Jan-22 05:31N 35°60' W 005°20'4 7.1
2018-Jan-22 05:00N 35°59' W 005°25'4 8.8
2018-Jan-22 04:30N 35°57' W 005°30'26911.5
2018-Jan-21 05:06N 32°58' W 009°33'1212.2
2018-Jan-21 04:09N 32°49' W 009°42'  

Dump ship's entire track history